• Join FlightAware (Why Join?)
  • Login
  • US Flag 
03:45PM EST


 

Airport Tracker/Info


-or-


 

Live Flight TrackerFlight Track Log ✈ LOF3416 ✈ 18-Apr-2013 ✈ KIAD - KDAY

Flight Track Log - Related Links

Times and Time Zones

All times are in EDT time to prevent confusion due to time zone crossing. See the LOF3416 flight status page for this flight to view local times or setup timezone preferences in your user account.

Time Position Orientation Groundspeed Altitude Reporting Facility
EDT Latitude Longitude Course Direction KTS MPH feet Rate Location/Type
11:58PM 38.9500 -77.5167 288° West 184 212 1,500  Level Potomac TRACON
11:59PM 38.9333 -77.5833 252° West 208 239 3,300 1,900 Climbing Potomac TRACON
12:00AM 38.9333 -77.6667 270° West 238 274 5,300 2,100 Climbing Potomac TRACON
12:01AM 38.8667 -77.9165 260° West  Level FlightAware Approximate
12:01AM 38.9000 -77.7500 243° Southwest 240 276 7,500  Level Potomac TRACON
12:02AM 38.8994 -78.0306 288° West  Level FlightAware Approximate
12:02AM 38.9000 -77.8500 270° West 275 316 9,500  Level Potomac TRACON
12:03AM 38.9283 -78.1466 288° West  Level FlightAware Approximate
12:03AM 38.9136 -77.9367 281° West 283 326 9,900  Level Washington Center
12:04AM 38.9319 -78.0519 282° West 307 353 10,700 1,250 Climbing Washington Center
12:05AM 38.9525 -78.1675 283° West 327 376 12,400 1,800 Climbing Washington Center
12:06AM 38.9625 -78.2800 277° West 327 376 14,300 1,700 Climbing Washington Center
12:07AM 38.9664 -78.3897 273° West 327 376 15,800 1,450 Climbing Washington Center
12:08AM 38.9700 -78.4992 272° West 316 364 17,200 1,400 Climbing Washington Center
12:09AM 38.9736 -78.6089 272° West 311 358 18,600 1,450 Climbing Washington Center
12:10AM 38.9750 -78.7156 271° West 311 358 20,100 1,350 Climbing Washington Center
12:11AM 38.9806 -78.8200 274° West 306 352 21,300 1,150 Climbing Washington Center
12:12AM 38.9819 -78.9269 271° West 306 352 22,400 1,050 Climbing Washington Center
12:13AM 38.9892 -79.0342 275° West 306 352 23,400 1,000 Climbing Washington Center
12:14AM 38.9967 -79.1414 275° West 311 358 24,400 950 Climbing Washington Center
12:15AM 39.0078 -79.2542 277° West 311 358 25,300 950 Climbing Washington Center
12:16AM 39.0150 -79.3614 275° West 311 358 26,300 950 Climbing Washington Center
12:17AM 39.0239 -79.4714 276° West 311 358 27,200 850 Climbing Washington Center
12:18AM 39.0328 -79.5814 276° West 311 358 28,000 400 Climbing Washington Center
12:19AM 39.0408 -79.7128 275° West 326 375 28,000  Level Washington Center
12:20AM 39.0500 -79.8122 277° West 331 381 28,000  Level Washington Center
12:21AM 39.0581 -79.9383 275° West 341 392 28,000  Level Washington Center
12:23AM 39.0783 -80.2844 274° West 375 432 28,000  Level Indianapolis Center
12:24AM 39.0867 -80.4214 275° West 383 441 28,000  Level Indianapolis Center
12:25AM 39.1031 -80.5569 279° West 384 442 28,000  Level Indianapolis Center
12:26AM 39.1192 -80.6953 279° West 390 449 28,000  Level Indianapolis Center
12:27AM 39.1347 -80.8336 278° West 392 451 28,000  Level Indianapolis Center
12:28AM 39.1511 -80.9731 279° West 396 456 28,000  Level Indianapolis Center
12:29AM 39.1669 -81.1108 278° West 392 451 28,000  Level Indianapolis Center
12:30AM 39.1822 -81.2531 278° West 400 460 28,000  Level Indianapolis Center
12:31AM 39.1981 -81.3925 278° West 397 457 28,000  Level Indianapolis Center
12:32AM 39.2125 -81.5322 278° West 396 456 28,000  Level Indianapolis Center
12:33AM 39.2278 -81.6717 278° West 396 456 28,000 -148 Level Indianapolis Center
12:34AM 39.2417 -81.8117 277° West 397 457 27,700 -446 Descending Indianapolis Center
12:35AM 39.2578 -81.9558 278° West 407 468 27,100 -645 Descending Indianapolis Center
12:36AM 39.2747 -82.1328 277° West 414 476 26,400 -639 Descending Indianapolis Center
12:37AM 39.2903 -82.2803 278° West 415 478 25,800 -590 Descending Indianapolis Center
12:38AM 39.3044 -82.4281 277° West 416 479 25,200 -595 Descending Indianapolis Center
12:39AM 39.3181 -82.5642 277° West 416 479 24,600 -645 Descending Indianapolis Center
12:40AM 39.3325 -82.7119 277° West 412 474 23,900 -984 Descending Indianapolis Center
12:41AM 39.3464 -82.8606 277° West 412 474 22,600 -1,820 Descending Indianapolis Center
12:42AM 39.3597 -83.0103 277° West 414 476 20,200 -2,430 Descending Indianapolis Center
12:43AM 39.3736 -83.1506 277° West 393 452 17,700 -2,500 Descending Indianapolis Center
12:44AM 39.3803 -83.2203 277° West 376 433 16,700 -2,100 Descending Indianapolis Center
12:44AM 39.3875 -83.2967 277° West 388 447 15,600 -1,918 Descending Indianapolis Center
12:45AM 39.4072 -83.4311 281° West 358 412 13,600 -1,785 Descending Indianapolis Center
12:46AM 39.4978 -83.5097 326° Northwest 404 465 12,000 -1,339 Descending Indianapolis Center
12:48AM 39.5931 -83.5808 330° Northwest 373 429 10,900 -1,240 Descending Indianapolis Center
12:49AM 39.6722 -83.6422 329° Northwest 321 369 9,500 -1,438 Descending Indianapolis Center
12:50AM 39.7481 -83.6950 332° Northwest 300 345 8,000 -1,475 Descending Indianapolis Center
12:51AM 39.8200 -83.7394 335° Northwest 285 328 6,500 -1,488 Descending Indianapolis Center
12:52AM 39.8894 -83.7917 330° Northwest 281 323 5,000 -1,240 Descending Indianapolis Center
12:53AM 39.9469 -83.8614 317° Northwest 285 328 4,000 -496 Descending Indianapolis Center
12:54AM 40.0025 -83.9311 316° Northwest 279 321 4,000 -298 Level Indianapolis Center
12:55AM 40.0419 -84.0181 301° West 257 296 3,400 -590 Descending Indianapolis Center
12:56AM 40.0561 -84.1044 282° West 231 266 2,800 -397 Descending Indianapolis Center
12:57AM 40.0442 -84.1792 258° West 209 241 2,600 -198 Descending Indianapolis Center
12:58AM 40.0119 -84.2158 221° Southwest 133 153 2,400 -197 Descending Indianapolis Center
12:59AM 39.9764 -84.2139 178° South 113 130 2,200 -397 Descending Indianapolis Center
01:00AM 39.9428 -84.2147 181° South 121 139 1,600 -600 Descending Indianapolis Center